Chalfont St Giles, United Kingdom
Current Conditions -  °F | °C
As of 8:50 PM on Saturday 22 Nov 2014 (Local Time) from EGWU Reporting Station
Light Rain Light Rain  
Wind Chill: 57°   Ceiling: 1500
Heat Index: 57°   Visibility: 1.8mi
Dew Point: 55°   Wind: 2mph
Humidity: 94%   Direction: 220°SW
Pressure: 29.94"   Gusts: NA
Location:  51.63°N, 0.57°W
Report Text: EGWU 222050Z 22002KT 3000 -RADZ SCT003 OVC015 14/13 Q1014 YLO2 TEMPO 1500 DZ SCT002 AMB
Loading
Personal Weather Stations






























Interactive Weather Map New forecast layout! Learn more

10-Day Weather Forecast

Advertisements
Track Severe Weather on mobile